Flight Track Log - Related Links

Times and Time Zones

All times are in EDT time to prevent confusion due to time zone crossing. See the AAY876 flight status page for this flight to view local times or setup timezone preferences in your user account.

Time Position Orientation Groundspeed Altitude Reporting Facility
EDT Latitude Longitude Course Direction KTS MPH feet Rate Location/Type
Sat 02:55:15 PM 27.9833 -82.6833 24° Northeast 205 236 2,400  Level Tampa TRACON
Sat 02:56:15 PM 28.0500 -82.6500 24° Northeast 260 299 4,500 2,400 Climbing Tampa TRACON
Sat 02:57:15 PM 28.1167 -82.6500 360° North 285 328 7,200 2,750 Climbing Tampa TRACON
Sat 02:58:15 PM 28.2000 -82.6667 350° North 291 335 10,000 1,906 Climbing Tampa TRACON
Sat 03:00:27 PM 28.3981 -82.7344 343° North 332 382 13,300 1,781 Climbing Jacksonville Center
Sat 03:01:27 PM 28.4964 -82.7603 347° North 347 399 15,700 2,250 Climbing Jacksonville Center
Sat 03:02:27 PM 28.5986 -82.7861 347° North 358 412 17,800 2,025 Climbing Jacksonville Center
Sat 03:02:47 PM 28.6388 -82.7945 347° North 388 447 18,400 1,600 Climbing FlightAware ADS-B
Sat 03:03:27 PM 28.7008 -82.8144 346° North 368 423 19,400 1,140 Climbing Jacksonville Center
Sat 03:04:27 PM 28.8114 -82.8428 347° North 380 437 20,300 1,200 Climbing Jacksonville Center
Sat 03:05:27 PM 28.9264 -82.8711 348° North 400 460 21,800 1,700 Climbing Jacksonville Center
Sat 03:06:27 PM 29.0431 -82.9019 347° North 414 476 23,700 1,650 Climbing Jacksonville Center
Sat 03:07:27 PM 29.1622 -82.9331 347° North 419 482 25,100 1,350 Climbing Jacksonville Center
Sat 03:08:27 PM 29.2811 -82.9639 347° North 435 501 26,400 1,500 Climbing Jacksonville Center
Sat 03:09:27 PM 29.4022 -82.9975 346° North 435 501 28,100 1,400 Climbing Jacksonville Center
Sat 03:10:27 PM 29.5086 -83.0286 346° North 430 495 29,200 1,000 Climbing Jacksonville Center
Sat 03:11:27 PM 29.6297 -83.0647 345° North 435 501 30,100 1,200 Climbing Jacksonville Center
Sat 03:12:27 PM 29.7547 -83.1222 338° Northwest 435 501 31,600 1,400 Climbing Jacksonville Center
Sat 03:13:27 PM 29.8633 -83.1728 338° Northwest 430 495 32,900 1,250 Climbing Jacksonville Center
Sat 03:14:27 PM 29.9781 -83.2258 338° Northwest 432 497 34,100 1,100 Climbing Jacksonville Center
Sat 03:15:27 PM 30.0781 -83.2719 338° Northwest 432 497 35,100 900 Climbing Jacksonville Center
Sat 03:16:27 PM 30.1886 -83.3228 338° Northwest 432 497 35,900 450 Climbing Jacksonville Center
Sat 03:17:27 PM 30.3011 -83.3761 338° Northwest 432 497 36,000  Climbing Jacksonville Center
Sat 03:18:27 PM 30.4094 -83.4250 339° North 432 497 35,900  Descending Jacksonville Center
Sat 03:19:27 PM 30.5178 -83.4761 338° Northwest 427 491 36,000 50 Climbing Jacksonville Center
Sat 03:20:27 PM 30.6303 -83.5300 338° Northwest 427 491 36,000  Level Jacksonville Center
Sat 03:21:27 PM 30.7450 -83.5839 338° Northwest 421 484 36,000  Level Jacksonville Center
Sat 03:22:27 PM 30.8553 -83.6378 337° Northwest 421 484 36,000  Level Jacksonville Center
Sat 03:23:27 PM 30.9656 -83.6897 338° Northwest 416 479 36,000  Level Jacksonville Center
Sat 03:24:27 PM 31.0739 -83.7439 337° Northwest 416 479 36,000  Level Jacksonville Center
Sat 03:25:27 PM 31.1842 -83.7958 338° Northwest 416 479 36,000  Level Jacksonville Center
Sat 03:26:27 PM 31.2944 -83.8481 338° Northwest 416 479 36,000  Level Jacksonville Center
Sat 03:27:32 PM 31.4022 -83.9028 337° Northwest 415 478 36,000  Level Atlanta Center
Sat 03:28:32 PM 31.5128 -83.9536 339° North 420 483 36,000  Level Atlanta Center
Sat 03:29:32 PM 31.6403 -83.9900 346° North 420 483 36,000  Level Atlanta Center
Sat 03:30:32 PM 31.7611 -84.0169 349° North 420 483 36,000  Level Atlanta Center
Sat 03:31:32 PM 31.8781 -84.0389 351° North 426 490 36,000  Level Atlanta Center
Sat 03:32:32 PM 31.9950 -84.0658 349° North 426 490 36,000  Level Atlanta Center
Sat 03:33:32 PM 32.1161 -84.0928 349° North 426 490 36,000  Level Atlanta Center
Sat 03:34:32 PM 32.2350 -84.1175 350° North 432 497 36,000  Level Atlanta Center
Sat 03:35:32 PM 32.3539 -84.1444 349° North 432 497 36,000  Level Atlanta Center
Sat 03:36:32 PM 32.4708 -84.1719 349° North 432 497 36,000  Level Atlanta Center
Sat 03:37:32 PM 32.5897 -84.1992 349° North 432 497 36,000  Level Atlanta Center
Sat 03:38:32 PM 32.7108 -84.2264 349° North 432 497 36,000  Level Atlanta Center
Sat 03:39:32 PM 32.8172 -84.2539 348° North 432 497 36,000  Level Atlanta Center
Sat 03:40:32 PM 32.9467 -84.2814 350° North 432 497 36,000  Level Atlanta Center
Sat 03:41:32 PM 33.0675 -84.3089 349° North 432 497 36,000  Level Atlanta Center
Sat 03:42:32 PM 33.1844 -84.3367 349° North 426 490 36,000  Level Atlanta Center
Sat 03:48:38 PM 33.9110 -84.5033 349° North 429 494 36,000  Level FlightAware ADS-B (KDZJ)
Sat 03:49:18 PM 33.9897 -84.5224 349° North 430 495 36,000  Level FlightAware ADS-B (KDZJ)
Sat 03:49:58 PM 34.0686 -84.5416 349° North 429 494 36,000  Level FlightAware ADS-B (KDZJ)
Sat 03:50:38 PM 34.1455 -84.5604 349° North 429 494 36,000  Level FlightAware ADS-B (KDZJ)
Sat 03:51:17 PM 34.2208 -84.5857 343° North 424 488 36,000  Level FlightAware ADS-B (KDZJ)
Sat 03:51:58 PM 34.2968 -84.6134 343° North 424 488 36,000  Level FlightAware ADS-B (KDZJ)
Sat 03:52:38 PM 34.3711 -84.6401 343° North 417 480 36,000  Level FlightAware ADS-B (KDZJ)
Sat 03:53:18 PM 34.4478 -84.6677 343° North 417 480 36,000  Level FlightAware ADS-B (KDZJ)
Sat 03:53:58 PM 34.5224 -84.6947 343° North 417 480 36,000  Level FlightAware ADS-B (KDZJ)
Sat 03:54:38 PM 34.5989 -84.7224 343° North 418 481 36,000  Level FlightAware ADS-B (KDZJ)
Sat 03:55:18 PM 34.6733 -84.7495 343° North 418 481 36,000  Level FlightAware ADS-B (KDZJ)
Sat 03:55:58 PM 34.7505 -84.7776 343° North 419 482 36,000  Level FlightAware ADS-B (KDZJ)
Sat 03:56:38 PM 34.8249 -84.8047 343° North 418 481 36,000  Level FlightAware ADS-B (KDZJ)
Sat 03:57:17 PM 34.9000 -84.8321 343° North 418 481 36,000  Level FlightAware ADS-B (KDZJ)
Sat 03:57:58 PM 34.9772 -84.8604 343° North 418 481 36,000  Level FlightAware ADS-B (KDZJ)
Sat 03:58:38 PM 35.0494 -84.8868 343° North 419 482 36,000  Level FlightAware ADS-B (KDZJ)
Sat 03:59:08 PM 35.0469 -84.8859 343° North 426 490 36,000  Level FlightAware ADS-B (KMDQ)
Sat 03:59:48 PM 35.1839 -84.9361 343° North 427 491 36,000  Level FlightAware ADS-B (KMDQ)
Sat 04:00:28 PM 35.2603 -84.9641 343° North 429 494 36,000  Level FlightAware ADS-B (KMDQ)
Sat 04:01:08 PM 35.3357 -84.9920 343° North 430 495 36,000  Level FlightAware ADS-B (KMDQ)
Sat 04:01:47 PM 35.3888 -85.0118 343° North 429 494 36,000  Level FlightAware ADS-B (KMDQ)
Sat 04:02:48 PM 35.5271 -85.0632 343° North 426 490 36,000  Level FlightAware ADS-B (KMDQ)
Sat 04:03:29 PM 35.6011 -85.0907 343° North 426 490 36,000  Level FlightAware ADS-B (KMDQ)
Sat 04:04:08 PM 35.6766 -85.1188 343° North 425 489 36,000  Level FlightAware ADS-B (KMDQ)
Sat 04:04:48 PM 35.7518 -85.1470 343° North 423 487 36,000  Level FlightAware ADS-B (KMDQ)
Sat 04:05:28 PM 35.8266 -85.1749 343° North 423 487 36,000  Level FlightAware ADS-B (KMDQ)
Sat 04:06:09 PM 35.8812 -85.1954 343° North 424 488 36,000  Level FlightAware ADS-B (KMDQ)
Sat 04:06:48 PM 35.9780 -85.2319 343° North 424 488 36,000  Level FlightAware ADS-B (KMDQ)
Sat 04:07:29 PM 36.0514 -85.2595 343° North 422 486 36,000  Level FlightAware ADS-B (KMDQ)
Sat 04:08:08 PM 36.1237 -85.2866 343° North 422 486 36,000  Level FlightAware ADS-B (KMDQ)
Sat 04:08:48 PM 36.1992 -85.3152 343° North 423 487 36,000  Level FlightAware ADS-B (KMDQ)
Sat 04:09:28 PM 36.2760 -85.3443 343° North 424 488 36,000  Level FlightAware ADS-B (KMDQ)
Sat 04:10:09 PM 36.3457 -85.3707 343° North 423 487 36,000  Level FlightAware ADS-B (KMDQ)
Sat 04:10:43 PM 36.4116 -85.3957 343° North 422 486 36,000  Level FlightAware ADS-B (KMDQ)
Sat 04:11:28 PM 36.4958 -85.4277 343° North 421 484 36,000  Level FlightAware ADS-B (KMDQ)
Sat 04:12:08 PM 36.5716 -85.4568 343° North 421 484 36,000  Level FlightAware ADS-B (KMDQ)
Sat 04:13:07 PM 36.6799 -85.4983 343° North 422 486 36,000  Level FlightAware ADS-B
Sat 04:15:13 PM 36.5772 -85.4590 343° North 423 487 36,000  Level FlightAware ADS-B (EPWR / WRO)
Sat 04:17:55 PM 37.2278 -85.7098 343° North 425 489 36,000  Level FlightAware ADS-B (EPWR / WRO)
Sat 04:18:39 PM 37.3111 -85.7423 343° North 424 488 36,000  Level FlightAware ADS-B (EPWR / WRO)
Sat 04:19:15 PM 37.3788 -85.7687 343° North 423 487 36,000  Level FlightAware ADS-B (EPWR / WRO)
Sat 04:19:57 PM 37.4486 -85.7960 343° North 422 486 36,000  Level FlightAware ADS-B (EPWR / WRO)
Sat 04:20:42 PM 37.5412 -85.8323 343° North 422 486 36,000  Level FlightAware ADS-B (EPWR / WRO)
Sat 04:21:19 PM 37.6096 -85.8590 343° North 421 484 36,000  Level FlightAware ADS-B (EPWR / WRO)
Sat 04:22:00 PM 37.6858 -85.8891 343° North 420 483 36,000  Level FlightAware ADS-B
Sat 04:22:37 PM 37.7522 -85.9154 343° North 420 483 36,000  Level FlightAware ADS-B (EPWR / WRO)
Sat 04:23:21 PM 37.8369 -85.9489 343° North 421 484 36,000  Level FlightAware ADS-B (EPWR / WRO)
Sat 04:23:57 PM 37.8949 -85.9718 343° North 422 486 36,000  Level FlightAware ADS-B (EPWR / WRO)
Sat 04:24:27 PM 37.9598 -85.9975 343° North 422 486 36,000  Level FlightAware ADS-B (EPWR / WRO)
Sat 04:24:58 PM 38.0172 -86.0203 343° North 423 487 36,000  Level FlightAware ADS-B (EPWR / WRO)
Sat 04:25:30 PM 38.0782 -86.0446 343° North 423 487 36,000  Level FlightAware ADS-B
Sat 04:26:07 PM 38.1461 -86.0717 343° North 423 487 36,000  Level FlightAware ADS-B (EPWR / WRO)
Sat 04:26:39 PM 38.2069 -86.0960 343° North 424 488 36,000  Level FlightAware ADS-B
Sat 04:27:27 PM 38.2964 -86.1319 343° North 425 489 36,000  Level FlightAware ADS-B
Sat 04:28:02 PM 38.3615 -86.1580 343° North 425 489 36,000  Level FlightAware ADS-B (EPWR / WRO)
Sat 04:28:36 PM 38.4050 -86.1754 343° North 425 489 36,000  Level FlightAware ADS-B (KCVG)
Sat 04:29:20 PM 38.5082 -86.2169 343° North 424 488 36,000  Level FlightAware ADS-B
Sat 04:30:01 PM 38.5854 -86.2482 342° North 423 487 36,000  Level FlightAware ADS-B
Sat 04:31:04 PM 38.7023 -86.2955 343° North 423 487 36,000  Level FlightAware ADS-B
Sat 04:32:05 PM 38.8153 -86.3414 342° North 424 488 36,000  Level FlightAware ADS-B
Sat 04:33:09 PM 38.9366 -86.3908 342° North 423 487 36,000  Level FlightAware ADS-B
Sat 04:34:01 PM 38.9992 -86.4164 342° North 423 487 36,000  Level FlightAware ADS-B
Sat 04:36:01 PM 39.2578 -86.5227 342° North 421 484 36,000  Level FlightAware ADS-B (KCVG)
Sat 04:37:04 PM 39.3444 -86.5769 342° North 422 486 36,000  Level Chicago Center
Sat 04:42:32 PM 39.9027 -87.0054 329° Northwest 412 474 36,000  Level FlightAware ADS-B
Sat 04:43:06 PM 39.9580 -87.0484 329° Northwest 413 475 36,000  Level FlightAware ADS-B
Sat 04:43:44 PM 40.0201 -87.0967 329° Northwest 413 475 36,000  Level FlightAware ADS-B
Sat 04:44:25 PM 40.0882 -87.1498 329° Northwest 415 478 36,000  Level FlightAware ADS-B
Sat 04:45:12 PM 40.1661 -87.2107 329° Northwest 415 478 36,000  Level FlightAware ADS-B
Sat 04:45:51 PM 40.2251 -87.2611 318° Northwest 409 471 36,000  Level FlightAware ADS-B
Sat 04:46:45 PM 40.2985 -87.3594 314° West 407 468 36,000  Level FlightAware ADS-B
Sat 04:47:15 PM 40.3369 -87.4106 314° West 407 468 36,000  Level FlightAware ADS-B
Sat 04:47:46 PM 40.3792 -87.4673 314° West 406 467 36,000  Level FlightAware ADS-B
Sat 04:48:19 PM 40.4214 -87.5240 314° West 405 466 36,000  Level FlightAware ADS-B
Sat 04:48:57 PM 40.4714 -87.5916 314° West 407 468 36,000  Level FlightAware ADS-B
Sat 04:49:37 PM 40.5237 -87.6623 314° West 406 467 36,000  Level FlightAware ADS-B
Sat 04:50:21 PM 40.5814 -87.7406 314° West 406 467 36,000 -439 Level FlightAware ADS-B
Sat 04:50:59 PM 40.6307 -87.8076 314° West 403 464 35,400 -2,127 Descending FlightAware ADS-B
Sat 04:51:40 PM 40.6847 -87.8810 314° West 409 471 33,200 -2,341 Descending FlightAware ADS-B
Sat 04:52:21 PM 40.7378 -87.9535 314° West 407 468 32,200 -960 Descending FlightAware ADS-B
Sat 04:52:55 PM 40.7823 -88.0143 314° West 405 466 32,000 -188 Descending FlightAware ADS-B
Sat 04:53:25 PM 40.8211 -88.0675 314° West 405 466 32,000 -197 Level FlightAware ADS-B
Sat 04:53:56 PM 40.8614 -88.1230 314° West 401 461 31,800 -689 Descending FlightAware ADS-B
Sat 04:54:26 PM 40.8994 -88.1755 314° West 405 466 31,300 -984 Descending FlightAware ADS-B
Sat 04:54:57 PM 40.9388 -88.2298 314° West 399 459 30,800 -951 Descending FlightAware ADS-B
Sat 04:55:48 PM 41.0032 -88.3185 314° West 394 453 30,000 -963 Descending FlightAware ADS-B
Sat 04:56:18 PM 41.0408 -88.3706 314° West 392 451 29,500 -1,500 Descending FlightAware ADS-B
Sat 04:56:48 PM 41.0415 -88.3716 314° West 392 451 28,500 -2,129 Descending FlightAware ADS-B
Sat 04:57:20 PM 41.1175 -88.4771 314° West 392 451 27,300 -2,197 Descending FlightAware ADS-B
Sat 04:57:59 PM 41.1651 -88.5435 313° West 379 436 25,900 -2,160 Descending FlightAware ADS-B
Sat 04:58:35 PM 41.2063 -88.6007 314° West 371 427 24,600 -2,118 Descending FlightAware ADS-B
Sat 04:59:24 PM 41.2654 -88.6835 313° West 364 419 22,900 -2,049 Descending FlightAware ADS-B
Sat 04:59:57 PM 41.3039 -88.7376 313° West 357 411 21,800 -2,000 Descending FlightAware ADS-B
Sat 05:00:30 PM 41.3340 -88.7802 313° West 353 406 20,700 -1,865 Descending FlightAware ADS-B
Sat 05:01:11 PM 41.3858 -88.8529 313° West 345 397 19,500 -1,820 Descending FlightAware ADS-B
Sat 05:01:59 PM 41.4385 -88.9275 313° West 338 389 18,000 -1,575 Descending FlightAware ADS-B
Sat 05:02:31 PM 41.4706 -88.9727 313° West 328 377 17,400 -1,479 Descending FlightAware ADS-B
Sat 05:03:12 PM 41.5149 -89.0351 313° West 326 375 16,200 -1,690 Descending FlightAware ADS-B
Sat 05:03:42 PM 41.5432 -89.0753 313° West 324 373 15,400 -1,672 Descending FlightAware ADS-B
Sat 05:04:13 PM 41.5750 -89.1205 313° West 322 371 14,500 -1,742 Descending FlightAware ADS-B
Sat 05:04:44 PM 41.6088 -89.1686 313° West 321 369 13,600 -1,258 Descending FlightAware ADS-B
Sat 05:05:15 PM 41.6299 -89.1990 313° West 320 368 13,200 -357 Descending FlightAware ADS-B
Sat 05:06:08 PM 41.6989 -89.2839 338° Northwest 329 379 13,100 -692 Descending FlightAware ADS-B
Sat 05:06:33 PM 41.7359 -89.2894 14° North 342 394 12,300 -1,710 Descending FlightAware ADS-B
Sat 05:09:14 PM 41.9663 -89.1936 17° North 311 358 7,800 -1,848 Descending FlightAware ADS-B
Sat 05:09:51 PM 42.0138 -89.1738 17° North 314 361 6,200 -2,097 Descending FlightAware ADS-B
Sat 05:10:57 PM 42.0950 -89.1400 17° North 306 352 4,200 -1,181 Descending Chicago Center
Sat 05:11:58 PM 42.1706 -89.1144 14° North 291 335 3,700 -585 Descending Chicago Center
Sat 05:13:00 PM 42.2364 -89.1286 351° North 248 285 3,000 -339 Descending Chicago Center
Sat 05:14:02 PM 42.3075 -89.1506 347° North 228 262 3,000  Level Chicago Center
Sat 05:15:03 PM 42.3358 -89.0967 55° Northeast 226 260 3,000 -49 Level Chicago Center
Sat 05:16:05 PM 42.3050 -89.0744 152° Southeast 167 192 2,900 -244 Descending Chicago Center
Sat 05:17:06 PM 42.2717 -89.0792 186° South 154 177 2,500 -393 Descending Chicago Center

Login

Don't have an account? Register now (free) for customized features, flight alerts, and more!